createdAt,value
2023-05-19T00:00:32.391Z,89.53
2023-05-19T00:01:32.280Z,90.16
2023-05-19T00:02:32.388Z,94.13
2023-05-19T00:03:32.368Z,97.09
2023-05-19T00:04:32.377Z,92.89
2023-05-19T00:05:32.405Z,94.61
2023-05-19T00:06:32.470Z,93.86
2023-05-19T00:07:32.465Z,90.70
2023-05-19T00:08:32.503Z,91.54
2023-05-19T00:09:32.525Z,91.27
2023-05-19T00:10:32.766Z,92.51
2023-05-19T00:11:32.562Z,93.49
2023-05-19T00:12:32.585Z,90.49
2023-05-19T00:13:32.620Z,92.00
2023-05-19T00:14:32.630Z,89.54
2023-05-19T00:15:32.739Z,91.03
2023-05-19T00:16:32.707Z,89.61
2023-05-19T00:17:32.736Z,91.50
2023-05-19T00:18:32.743Z,90.93
2023-05-19T00:19:32.780Z,90.58
2023-05-19T00:20:33.053Z,91.82
2023-05-19T00:21:32.886Z,91.87
2023-05-19T00:22:32.894Z,85.93
2023-05-19T00:23:32.889Z,91.48
2023-05-19T00:24:32.913Z,92.89
2023-05-19T00:25:32.922Z,93.17
2023-05-19T00:26:32.979Z,92.01
2023-05-19T00:27:32.990Z,90.61
2023-05-19T00:28:32.982Z,92.02
2023-05-19T00:29:33.098Z,92.97
2023-05-19T00:30:33.198Z,93.04
2023-05-19T00:31:33.113Z,94.34
2023-05-19T00:32:33.182Z,93.66
2023-05-19T00:33:33.129Z,91.08
2023-05-19T00:34:33.185Z,90.81
2023-05-19T00:35:33.212Z,89.96
2023-05-19T00:36:33.246Z,94.27
2023-05-19T00:37:33.260Z,92.28
2023-05-19T00:38:33.290Z,91.89
2023-05-19T00:39:33.335Z,90.83
2023-05-19T00:40:33.511Z,91.18
2023-05-19T00:41:33.394Z,92.39
2023-05-19T00:42:33.399Z,91.32
2023-05-19T00:43:33.427Z,91.40
2023-05-19T00:44:33.437Z,90.57
2023-05-19T00:45:33.497Z,94.38
2023-05-19T00:46:33.601Z,93.03
2023-05-19T00:47:33.590Z,90.65
2023-05-19T00:48:33.562Z,88.71
2023-05-19T00:49:33.566Z,91.73
2023-05-19T00:50:33.846Z,90.48
2023-05-19T00:51:33.655Z,89.94
2023-05-19T00:52:33.713Z,91.52
2023-05-19T00:53:33.721Z,93.54
2023-05-19T00:54:33.732Z,92.99
2023-05-19T00:55:33.773Z,93.63
2023-05-19T00:56:33.792Z,90.34
2023-05-19T00:57:33.839Z,94.30
2023-05-19T00:58:33.898Z,91.86
2023-05-19T00:59:33.870Z,90.78
2023-05-19T01:00:34.310Z,97.25
2023-05-19T01:01:34.033Z,90.18
2023-05-19T01:02:34.053Z,94.77
2023-05-19T01:03:34.118Z,95.04
2023-05-19T01:04:34.005Z,92.94
2023-05-19T01:05:34.102Z,92.08
2023-05-19T01:06:34.098Z,93.19
2023-05-19T01:07:34.117Z,95.26
2023-05-19T01:08:34.139Z,90.13
2023-05-19T01:09:34.186Z,93.36
2023-05-19T01:10:34.227Z,92.51
2023-05-19T01:11:34.268Z,96.54
2023-05-19T01:12:34.294Z,92.34
2023-05-19T01:13:34.294Z,91.80
2023-05-19T01:14:34.331Z,88.96
2023-05-19T01:15:34.369Z,91.04
2023-05-19T01:16:34.446Z,93.06
2023-05-19T01:17:34.533Z,92.26
2023-05-19T01:18:34.434Z,93.89
2023-05-19T01:19:34.453Z,93.74
2023-05-19T01:20:34.521Z,94.80
2023-05-19T01:21:34.514Z,94.19
2023-05-19T01:22:34.546Z,92.96
2023-05-19T01:23:34.550Z,87.44
2023-05-19T01:24:34.593Z,93.55
2023-05-19T01:25:34.605Z,90.55
2023-05-19T01:26:34.644Z,88.93
2023-05-19T01:27:34.655Z,93.30
2023-05-19T01:28:34.695Z,89.25
2023-05-19T01:29:34.724Z,90.52
2023-05-19T01:30:34.843Z,93.91
2023-05-19T01:31:34.815Z,91.42
2023-05-19T01:32:34.887Z,89.07
2023-05-19T01:33:34.847Z,90.54
2023-05-19T01:34:34.864Z,89.69
2023-05-19T01:35:34.916Z,92.23
2023-05-19T01:36:34.917Z,92.61
2023-05-19T01:37:34.933Z,90.88
2023-05-19T01:38:35.003Z,91.42
2023-05-19T01:39:35.011Z,92.82
2023-05-19T01:40:35.067Z,90.64
2023-05-19T01:41:35.036Z,94.66
2023-05-19T01:42:35.076Z,93.90
2023-05-19T01:43:35.096Z,92.98
2023-05-19T01:44:35.133Z,93.39
2023-05-19T01:45:35.240Z,93.62
2023-05-19T01:46:35.628Z,94.33
2023-05-19T01:47:35.333Z,93.34
2023-05-19T01:48:35.268Z,94.74
2023-05-19T01:49:35.297Z,87.66
2023-05-19T01:50:35.338Z,90.91
2023-05-19T01:51:35.344Z,88.74
2023-05-19T01:52:35.369Z,90.79
2023-05-19T01:53:35.371Z,91.15
2023-05-19T01:54:35.456Z,89.64
2023-05-19T01:55:35.454Z,91.56
2023-05-19T01:56:35.891Z,94.60
2023-05-19T01:57:35.541Z,94.71
2023-05-19T01:58:35.566Z,90.16
2023-05-19T01:59:35.578Z,91.44
2023-05-19T02:00:35.600Z,89.39
2023-05-19T02:01:35.650Z,92.88
2023-05-19T02:02:35.723Z,93.78
2023-05-19T02:03:35.675Z,93.26
2023-05-19T02:04:35.819Z,92.57
2023-05-19T02:05:35.773Z,89.64
2023-05-19T02:06:35.793Z,90.04
2023-05-19T02:07:35.783Z,95.54
2023-05-19T02:08:35.827Z,95.92
2023-05-19T02:09:35.870Z,90.86
2023-05-19T02:10:35.912Z,93.14
2023-05-19T02:11:35.926Z,92.27
2023-05-19T02:12:35.957Z,90.14
2023-05-19T02:13:35.991Z,93.95
2023-05-19T02:14:36.042Z,97.15
2023-05-19T02:15:36.080Z,96.72
2023-05-19T02:16:36.129Z,89.03
2023-05-19T02:17:36.232Z,90.45
2023-05-19T02:18:36.158Z,91.39
2023-05-19T02:19:36.244Z,93.81
2023-05-19T02:20:36.260Z,92.05
2023-05-19T02:21:36.274Z,92.09
2023-05-19T02:22:36.310Z,93.55
2023-05-19T02:23:36.354Z,95.19
2023-05-19T02:24:36.382Z,93.05
2023-05-19T02:25:36.436Z,93.87
2023-05-19T02:26:36.452Z,93.48
2023-05-19T02:27:36.476Z,93.03
2023-05-19T02:28:36.565Z,92.44
2023-05-19T02:29:36.664Z,90.44
2023-05-19T02:30:36.618Z,95.48
2023-05-19T02:31:36.667Z,94.70
2023-05-19T02:32:36.755Z,89.84
2023-05-19T02:33:36.679Z,88.08
2023-05-19T02:34:36.758Z,88.84
2023-05-19T02:35:36.756Z,93.28
2023-05-19T02:36:36.800Z,92.44
2023-05-19T02:37:36.796Z,92.51
2023-05-19T02:38:36.888Z,94.20
2023-05-19T02:39:36.866Z,95.02
2023-05-19T02:40:36.896Z,93.64
2023-05-19T02:41:36.954Z,92.94
2023-05-19T02:42:36.950Z,92.72
2023-05-19T02:43:36.966Z,92.70
2023-05-19T02:44:37.027Z,90.24
2023-05-19T02:45:37.075Z,92.52
2023-05-19T02:46:37.121Z,93.48
2023-05-19T02:47:37.370Z,92.29
2023-05-19T02:48:37.126Z,95.45
2023-05-19T02:49:37.173Z,92.66
2023-05-19T02:50:37.218Z,92.87
2023-05-19T02:51:37.259Z,94.07
2023-05-19T02:52:37.299Z,93.25
2023-05-19T02:53:37.291Z,90.08
2023-05-19T02:54:37.339Z,94.08
2023-05-19T02:55:37.351Z,92.40
2023-05-19T02:56:37.412Z,92.78
2023-05-19T02:57:37.419Z,93.91
2023-05-19T02:58:37.464Z,93.69
2023-05-19T02:59:37.499Z,90.85
2023-05-19T03:00:37.519Z,92.17
2023-05-19T03:01:38.022Z,94.03
2023-05-19T03:02:37.684Z,91.00
2023-05-19T03:03:37.631Z,93.94
2023-05-19T03:04:37.670Z,90.38
2023-05-19T03:05:37.710Z,94.78
2023-05-19T03:06:37.742Z,93.22
2023-05-19T03:07:37.755Z,94.94
2023-05-19T03:08:38.810Z,95.82
2023-05-19T03:09:37.792Z,91.16
2023-05-19T03:10:37.752Z,98.85
2023-05-19T03:11:37.773Z,96.99
2023-05-19T03:12:37.772Z,93.31
2023-05-19T03:13:37.743Z,93.52
2023-05-19T03:14:37.835Z,93.84
2023-05-19T03:15:37.745Z,96.36
2023-05-19T03:16:37.839Z,95.46
2023-05-19T03:17:37.783Z,92.99
2023-05-19T03:18:37.708Z,91.04
2023-05-19T03:19:37.715Z,95.17
2023-05-19T03:20:39.021Z,94.19
2023-05-19T03:21:37.804Z,94.34
2023-05-19T03:22:37.869Z,95.05
2023-05-19T03:23:37.891Z,95.14
2023-05-19T03:24:37.924Z,94.50
2023-05-19T03:25:37.964Z,92.53
2023-05-19T03:26:38.006Z,93.73
2023-05-19T03:27:38.059Z,95.48
2023-05-19T03:28:38.054Z,93.42
2023-05-19T03:29:38.098Z,95.43
2023-05-19T03:30:38.113Z,91.93
2023-05-19T03:31:38.158Z,91.48
2023-05-19T03:32:38.309Z,93.29
2023-05-19T03:33:38.296Z,95.50
2023-05-19T03:34:38.265Z,95.51
2023-05-19T03:35:38.312Z,91.66
2023-05-19T03:36:38.301Z,93.78
2023-05-19T03:37:38.340Z,94.22
2023-05-19T03:38:38.368Z,94.26
2023-05-19T03:39:38.392Z,91.94
2023-05-19T03:40:38.473Z,95.38
2023-05-19T03:41:38.497Z,94.84
2023-05-19T03:42:38.504Z,96.55
2023-05-19T03:43:38.526Z,94.75
2023-05-19T03:44:38.585Z,94.65
2023-05-19T03:45:38.616Z,93.08
2023-05-19T03:46:38.620Z,91.48
2023-05-19T03:47:38.677Z,93.04
2023-05-19T03:48:38.707Z,95.73
2023-05-19T03:49:38.714Z,92.07
2023-05-19T03:50:38.776Z,92.83
2023-05-19T03:51:38.835Z,98.14
2023-05-19T03:52:38.833Z,93.69
2023-05-19T03:53:38.874Z,93.22
2023-05-19T03:54:38.930Z,93.17
2023-05-19T03:55:38.926Z,96.93
2023-05-19T03:56:38.959Z,95.01
2023-05-19T03:57:38.997Z,94.74
2023-05-19T03:58:39.042Z,91.42
2023-05-19T03:59:39.053Z,95.33
2023-05-19T04:00:39.086Z,91.41
2023-05-19T04:01:39.137Z,99.06
2023-05-19T04:02:39.250Z,94.06
2023-05-19T04:03:39.298Z,94.82
2023-05-19T04:04:39.268Z,93.29
2023-05-19T04:05:39.255Z,94.37
2023-05-19T04:06:39.288Z,96.42
2023-05-19T04:07:39.300Z,95.76
2023-05-19T04:08:39.354Z,92.67
2023-05-19T04:09:39.431Z,94.31
2023-05-19T04:10:39.410Z,95.18
2023-05-19T04:11:39.434Z,93.51
2023-05-19T04:12:39.511Z,97.09
2023-05-19T04:13:39.509Z,92.17
2023-05-19T04:14:39.561Z,93.58
2023-05-19T04:15:39.615Z,94.48
2023-05-19T04:16:39.629Z,96.72
2023-05-19T04:17:39.671Z,96.91
2023-05-19T04:18:39.717Z,96.17
2023-05-19T04:19:39.778Z,96.51
2023-05-19T04:20:39.813Z,94.93
2023-05-19T04:21:39.815Z,93.17
2023-05-19T04:22:39.862Z,96.53
2023-05-19T04:23:39.888Z,95.36
2023-05-19T04:24:39.900Z,95.07
2023-05-19T04:25:39.948Z,95.31
2023-05-19T04:26:40.429Z,96.44
2023-05-19T04:27:40.025Z,95.21
2023-05-19T04:28:40.053Z,98.64
2023-05-19T04:29:40.066Z,94.55
2023-05-19T04:30:40.117Z,99.32
2023-05-19T04:31:40.526Z,94.30
2023-05-19T04:32:40.190Z,97.85
2023-05-19T04:33:40.180Z,97.08
2023-05-19T04:34:40.225Z,98.57
2023-05-19T04:35:40.256Z,93.21
2023-05-19T04:36:40.293Z,95.90
2023-05-19T04:37:40.304Z,95.92
2023-05-19T04:38:40.351Z,95.29
2023-05-19T04:39:40.392Z,96.56
2023-05-19T04:40:40.446Z,95.90
2023-05-19T04:41:40.577Z,99.26
2023-05-19T04:42:40.504Z,95.66
2023-05-19T04:43:40.524Z,97.16
2023-05-19T04:44:40.505Z,96.79
2023-05-19T04:45:40.552Z,95.17
2023-05-19T04:46:40.985Z,96.62
2023-05-19T04:47:40.655Z,94.65
2023-05-19T04:48:40.676Z,96.99
2023-05-19T04:49:40.707Z,98.94
2023-05-19T04:50:40.708Z,95.97
2023-05-19T04:51:40.971Z,95.16
2023-05-19T04:52:40.799Z,95.74
2023-05-19T04:53:40.853Z,94.74
2023-05-19T04:54:40.835Z,95.09
2023-05-19T04:55:40.881Z,96.07
2023-05-19T04:56:40.921Z,98.26
2023-05-19T04:57:40.919Z,93.65
2023-05-19T04:58:41.981Z,98.59
2023-05-19T04:59:40.976Z,95.43
2023-05-19T05:00:40.992Z,95.32
2023-05-19T05:01:41.075Z,97.86
2023-05-19T05:02:41.182Z,97.17
2023-05-19T05:03:41.234Z,96.13
2023-05-19T05:04:41.125Z,97.06
2023-05-19T05:05:41.183Z,96.19
2023-05-19T05:06:41.225Z,97.25
2023-05-19T05:07:41.215Z,94.65
2023-05-19T05:08:41.250Z,97.33
2023-05-19T05:09:41.311Z,98.37
2023-05-19T05:10:41.361Z,97.89
2023-05-19T05:11:41.378Z,97.09
2023-05-19T05:12:41.383Z,93.70
2023-05-19T05:13:41.456Z,93.79
2023-05-19T05:14:41.466Z,94.79
2023-05-19T05:15:41.502Z,98.89
2023-05-19T05:16:41.586Z,94.79
2023-05-19T05:17:41.573Z,96.51
2023-05-19T05:18:43.514Z,94.55
2023-05-19T05:19:41.539Z,98.94
2023-05-19T05:20:41.583Z,92.79
2023-05-19T05:21:41.553Z,96.92
2023-05-19T05:22:41.533Z,97.21
2023-05-19T05:23:41.530Z,91.97
2023-05-19T05:24:41.533Z,92.58
2023-05-19T05:25:41.565Z,93.26
2023-05-19T05:26:41.517Z,96.67
2023-05-19T05:27:41.521Z,94.45
2023-05-19T05:28:41.530Z,93.87
2023-05-19T05:29:41.494Z,93.49
2023-05-19T05:30:41.502Z,96.62
2023-05-19T05:31:41.493Z,88.97
2023-05-19T05:32:41.525Z,89.36
2023-05-19T05:33:41.530Z,95.87
2023-05-19T05:34:41.440Z,91.78
2023-05-19T05:35:41.479Z,91.28
2023-05-19T05:36:41.447Z,94.01
2023-05-19T05:37:41.441Z,91.27
2023-05-19T05:38:41.415Z,92.66
2023-05-19T05:39:41.424Z,93.40
2023-05-19T05:40:41.429Z,90.63
2023-05-19T05:41:41.517Z,94.68
2023-05-19T05:42:41.389Z,89.32
2023-05-19T05:43:41.418Z,92.34
2023-05-19T05:44:41.395Z,92.20
2023-05-19T05:45:41.391Z,92.97
2023-05-19T05:46:41.366Z,90.35
2023-05-19T05:47:41.463Z,91.90
2023-05-19T05:48:41.382Z,93.88
2023-05-19T05:49:41.374Z,91.63
2023-05-19T05:50:41.387Z,92.85
2023-05-19T05:51:42.959Z,92.43
2023-05-19T05:52:42.354Z,92.78
2023-05-19T05:53:41.339Z,93.21
2023-05-19T05:54:41.353Z,94.49
2023-05-19T05:55:41.313Z,93.02
2023-05-19T05:56:41.310Z,91.86
2023-05-19T05:57:41.272Z,96.20
2023-05-19T05:58:41.289Z,94.31
2023-05-19T05:59:41.296Z,95.01
2023-05-19T06:00:41.307Z,94.63
2023-05-19T06:01:41.284Z,91.46
2023-05-19T06:02:41.321Z,96.92
2023-05-19T06:03:41.306Z,92.08
2023-05-19T06:04:41.248Z,91.47
2023-05-19T06:05:41.326Z,91.49
2023-05-19T06:06:41.300Z,92.66
2023-05-19T06:07:41.313Z,95.19
2023-05-19T06:08:41.359Z,91.26
2023-05-19T06:09:41.360Z,93.69
2023-05-19T06:10:41.369Z,92.33
2023-05-19T06:11:41.604Z,92.27
2023-05-19T06:12:41.541Z,90.62
2023-05-19T06:13:41.507Z,92.14
2023-05-19T06:14:41.555Z,93.28
2023-05-19T06:15:41.688Z,94.15
2023-05-19T06:16:41.635Z,94.56
2023-05-19T06:17:41.672Z,97.06
2023-05-19T06:18:41.688Z,95.49
2023-05-19T06:19:41.717Z,94.02
2023-05-19T06:20:41.721Z,100.63
2023-05-19T06:21:41.811Z,98.48
2023-05-19T06:22:41.818Z,99.23
2023-05-19T06:23:41.960Z,98.67
2023-05-19T06:24:41.866Z,96.56
2023-05-19T06:25:41.937Z,94.69
2023-05-19T06:26:41.954Z,98.35
2023-05-19T06:27:41.971Z,95.94
2023-05-19T06:28:42.011Z,97.46
2023-05-19T06:29:42.077Z,97.34
2023-05-19T06:30:42.088Z,99.23
2023-05-19T06:31:42.197Z,97.36
2023-05-19T06:32:42.164Z,95.24
2023-05-19T06:33:42.174Z,100.18
2023-05-19T06:34:42.206Z,95.25
2023-05-19T06:35:42.246Z,95.19
2023-05-19T06:36:42.323Z,97.04
2023-05-19T06:37:42.352Z,97.10
2023-05-19T06:38:42.355Z,98.13
2023-05-19T06:39:42.395Z,98.96
2023-05-19T06:40:42.456Z,98.79
2023-05-19T06:41:42.495Z,96.98
2023-05-19T06:42:42.504Z,97.51
2023-05-19T06:43:42.500Z,99.91
2023-05-19T06:44:42.584Z,96.88
2023-05-19T06:45:42.626Z,97.32
2023-05-19T06:46:43.034Z,99.88
2023-05-19T06:47:42.771Z,97.92
2023-05-19T06:48:42.681Z,100.12
2023-05-19T06:49:42.732Z,99.85
2023-05-19T06:50:42.754Z,96.08
2023-05-19T06:51:42.983Z,100.82
2023-05-19T06:52:42.785Z,99.79
2023-05-19T06:53:42.861Z,101.05
2023-05-19T06:54:42.898Z,98.78
2023-05-19T06:55:57.469Z,95.84
2023-05-19T06:56:44.057Z,96.07
2023-05-19T06:57:42.914Z,96.13
2023-05-19T06:58:42.882Z,97.10
2023-05-19T06:59:42.887Z,98.30
2023-05-19T07:00:42.902Z,96.34
2023-05-19T07:01:42.989Z,97.71
2023-05-19T07:02:42.919Z,95.87
2023-05-19T07:03:42.955Z,99.28
2023-05-19T07:04:42.850Z,99.29
2023-05-19T07:05:42.833Z,103.61
2023-05-19T07:06:42.835Z,98.26
2023-05-19T07:07:42.871Z,97.99
2023-05-19T07:08:42.818Z,97.00
2023-05-19T07:09:42.815Z,96.72
2023-05-19T07:10:42.826Z,97.85
2023-05-19T07:11:42.873Z,97.14
2023-05-19T07:12:42.875Z,97.44
2023-05-19T07:13:42.903Z,93.85
2023-05-19T07:14:42.918Z,95.93
2023-05-19T07:15:42.948Z,95.97
2023-05-19T07:16:43.004Z,97.80
2023-05-19T07:17:43.117Z,94.86
2023-05-19T07:18:43.094Z,94.13
2023-05-19T07:19:43.089Z,93.92
2023-05-19T07:20:43.134Z,96.24
2023-05-19T07:21:43.500Z,94.34
2023-05-19T07:22:43.164Z,94.28
2023-05-19T07:23:43.189Z,92.46
2023-05-19T07:24:43.193Z,92.46
2023-05-19T07:25:43.242Z,89.32
2023-05-19T07:26:43.520Z,91.53
2023-05-19T07:27:43.276Z,91.56
2023-05-19T07:28:43.339Z,89.29
2023-05-19T07:29:43.341Z,92.69
2023-05-19T07:30:43.366Z,92.04
2023-05-19T07:31:43.554Z,89.12
2023-05-19T07:32:43.529Z,90.44
2023-05-19T07:33:43.489Z,89.42
2023-05-19T07:34:43.480Z,89.01
2023-05-19T07:35:43.536Z,89.47
2023-05-19T07:36:43.591Z,91.83
2023-05-19T07:37:43.577Z,86.22
2023-05-19T07:38:43.810Z,91.07
2023-05-19T07:39:43.661Z,88.46
2023-05-19T07:40:43.696Z,89.00
2023-05-19T07:41:43.704Z,89.49
2023-05-19T07:42:43.746Z,86.86
2023-05-19T07:43:43.790Z,87.85
2023-05-19T07:44:43.805Z,91.03
2023-05-19T07:45:43.894Z,87.42
2023-05-19T07:46:43.988Z,87.31
2023-05-19T07:47:43.932Z,86.93
2023-05-19T07:48:43.904Z,90.42
2023-05-19T07:49:43.961Z,88.13
2023-05-19T07:50:44.004Z,90.13
2023-05-19T07:51:44.052Z,86.02
2023-05-19T07:52:44.007Z,86.35
2023-05-19T07:53:44.077Z,85.21
2023-05-19T07:54:44.104Z,84.74
2023-05-19T07:55:44.132Z,87.41
2023-05-19T07:56:44.513Z,87.25
2023-05-19T07:57:44.195Z,86.57
2023-05-19T07:58:44.253Z,86.19
2023-05-19T07:59:44.263Z,86.38
2023-05-19T08:00:44.265Z,84.11
2023-05-19T08:01:44.533Z,87.34
2023-05-19T08:02:44.424Z,86.99
2023-05-19T08:03:44.432Z,87.44
2023-05-19T08:04:44.466Z,89.09
2023-05-19T08:05:44.446Z,87.99
2023-05-19T08:06:44.592Z,87.97
2023-05-19T08:07:44.507Z,87.91
2023-05-19T08:08:44.538Z,87.93
2023-05-19T08:09:44.537Z,88.88
2023-05-19T08:10:44.594Z,84.30
2023-05-19T08:11:45.006Z,87.03
2023-05-19T08:12:44.675Z,84.86
2023-05-19T08:13:44.686Z,87.37
2023-05-19T08:14:44.755Z,82.31
2023-05-19T08:15:44.770Z,82.68
2023-05-19T08:16:44.774Z,85.06
2023-05-19T08:17:44.875Z,84.74
2023-05-19T08:18:44.919Z,83.62
2023-05-19T08:19:44.966Z,86.77
2023-05-19T08:20:44.952Z,86.50
2023-05-19T08:21:44.981Z,83.84
2023-05-19T08:22:44.957Z,83.12
2023-05-19T08:23:44.951Z,81.25
2023-05-19T08:24:45.003Z,80.13
2023-05-19T08:25:45.037Z,84.25
2023-05-19T08:26:45.129Z,85.55
2023-05-19T08:27:45.119Z,83.88
2023-05-19T08:28:45.213Z,84.87
2023-05-19T08:29:45.176Z,82.44
2023-05-19T08:30:45.202Z,84.58
2023-05-19T08:31:45.277Z,85.79
2023-05-19T08:32:45.282Z,85.77
2023-05-19T08:33:45.301Z,83.50
2023-05-19T08:34:45.331Z,84.05
2023-05-19T08:35:45.342Z,86.53
2023-05-19T08:36:45.531Z,87.61
2023-05-19T08:37:45.429Z,88.74
2023-05-19T08:38:45.521Z,85.86
2023-05-19T08:39:45.436Z,86.91
2023-05-19T08:40:45.525Z,86.66
2023-05-19T08:41:45.529Z,86.62
2023-05-19T08:42:45.576Z,88.80
2023-05-19T08:43:45.586Z,86.28
2023-05-19T08:44:45.590Z,85.68
2023-05-19T08:45:45.615Z,83.19
2023-05-19T08:46:45.770Z,83.39
2023-05-19T08:47:45.752Z,86.19
2023-05-19T08:48:45.718Z,84.95
2023-05-19T08:49:45.741Z,87.54
2023-05-19T08:50:45.743Z,80.90
2023-05-19T08:51:45.798Z,78.14
2023-05-19T08:52:49.543Z,80.76
2023-05-19T08:53:46.821Z,81.00
2023-05-19T08:54:45.766Z,78.01
2023-05-19T08:55:45.782Z,76.03
2023-05-19T08:56:46.055Z,76.62
2023-05-19T08:57:45.787Z,76.17
2023-05-19T08:58:45.762Z,73.37
2023-05-19T08:59:45.765Z,74.48
2023-05-19T09:00:45.767Z,80.23
2023-05-19T09:01:46.121Z,75.44
2023-05-19T09:02:55.143Z,76.35
2023-05-19T09:03:46.795Z,76.45
2023-05-19T09:04:45.735Z,76.83
2023-05-19T09:05:45.718Z,76.98
2023-05-19T09:06:45.664Z,77.62
2023-05-19T09:07:45.653Z,77.02
2023-05-19T09:08:45.696Z,77.56
2023-05-19T09:09:45.717Z,74.94
2023-05-19T09:10:45.678Z,76.77
2023-05-19T09:11:45.680Z,79.02
2023-05-19T09:12:45.642Z,76.48
2023-05-19T09:13:45.655Z,74.87
2023-05-19T09:14:45.647Z,79.23
2023-05-19T09:15:45.644Z,79.22
2023-05-19T09:16:45.633Z,75.30
2023-05-19T09:17:45.649Z,80.21
2023-05-19T09:18:45.626Z,75.31
2023-05-19T09:19:45.662Z,75.63
2023-05-19T09:20:45.692Z,76.98
2023-05-19T09:21:45.786Z,74.65
2023-05-19T09:22:45.719Z,72.15
2023-05-19T09:23:45.761Z,76.14
2023-05-19T09:24:45.789Z,71.14
2023-05-19T09:25:45.800Z,71.32
2023-05-19T09:26:45.839Z,72.34
2023-05-19T09:27:45.846Z,73.45
2023-05-19T09:28:45.871Z,70.98
2023-05-19T09:29:45.902Z,73.62
2023-05-19T09:30:45.909Z,70.47
2023-05-19T09:31:46.059Z,70.55
2023-05-19T09:32:48.606Z,72.68
2023-05-19T09:33:46.391Z,73.35
2023-05-19T09:34:46.206Z,71.36
2023-05-19T09:35:46.250Z,71.58
2023-05-19T09:36:46.553Z,70.16
2023-05-19T09:37:46.334Z,71.82
2023-05-19T09:38:46.293Z,71.08
2023-05-19T09:39:46.328Z,68.50
2023-05-19T09:40:46.367Z,72.09
2023-05-19T09:41:46.441Z,67.77
2023-05-19T09:42:46.391Z,67.24
2023-05-19T09:43:46.408Z,69.40
2023-05-19T09:44:46.452Z,68.22
2023-05-19T09:45:46.464Z,64.92
2023-05-19T09:46:46.493Z,66.65
2023-05-19T09:47:46.558Z,66.26
2023-05-19T09:48:46.544Z,67.90
2023-05-19T09:49:46.545Z,68.75
2023-05-19T09:50:46.565Z,68.40
2023-05-19T09:51:46.626Z,66.00
2023-05-19T09:52:46.616Z,68.02
2023-05-19T09:53:46.649Z,69.78
2023-05-19T09:54:46.703Z,67.33
2023-05-19T09:55:46.724Z,67.23
2023-05-19T09:56:47.023Z,66.15
2023-05-19T09:57:46.732Z,67.64
2023-05-19T09:58:46.750Z,65.73
2023-05-19T09:59:46.792Z,67.73
2023-05-19T10:00:46.781Z,64.24
2023-05-19T10:01:47.018Z,66.53
2023-05-19T10:02:46.847Z,67.45
2023-05-19T10:03:46.909Z,67.20
2023-05-19T10:04:46.945Z,67.06
2023-05-19T10:05:46.921Z,71.85
2023-05-19T10:06:46.920Z,68.72
2023-05-19T10:07:46.982Z,71.91
2023-05-19T10:08:47.017Z,70.59
2023-05-19T10:09:47.032Z,68.26
2023-05-19T10:10:47.033Z,69.46
2023-05-19T10:11:47.067Z,68.82
2023-05-19T10:12:47.077Z,64.81
2023-05-19T10:13:47.131Z,66.86
2023-05-19T10:14:47.128Z,68.28
2023-05-19T10:15:58.076Z,67.31
2023-05-19T10:16:48.194Z,67.58
2023-05-19T10:17:47.187Z,67.72
2023-05-19T10:18:47.151Z,68.86
2023-05-19T10:19:47.121Z,68.00
2023-05-19T10:20:47.102Z,65.73
2023-05-19T10:21:47.109Z,67.02
2023-05-19T10:22:47.115Z,68.96
2023-05-19T10:23:47.090Z,66.49
2023-05-19T10:24:47.097Z,68.21
2023-05-19T10:25:47.073Z,67.74
2023-05-19T10:26:47.555Z,68.90
2023-05-19T10:27:47.039Z,67.37
2023-05-19T10:28:47.026Z,68.52
2023-05-19T10:29:47.045Z,70.35
2023-05-19T10:30:47.016Z,69.48
2023-05-19T10:31:47.048Z,68.93
2023-05-19T10:32:47.039Z,70.56
2023-05-19T10:33:47.036Z,68.63
2023-05-19T10:34:47.014Z,69.46
2023-05-19T10:35:47.329Z,70.25
2023-05-19T10:36:47.060Z,71.45
2023-05-19T10:37:47.073Z,71.72
2023-05-19T10:38:47.084Z,72.42
2023-05-19T10:39:47.087Z,73.36
2023-05-19T10:40:47.091Z,71.64
2023-05-19T10:41:47.221Z,71.27
2023-05-19T10:42:47.185Z,72.57
2023-05-19T10:43:47.181Z,72.01
2023-05-19T10:44:47.187Z,72.07
2023-05-19T10:45:47.248Z,72.15
2023-05-19T10:46:47.290Z,72.81
2023-05-19T10:47:47.331Z,72.74
2023-05-19T10:48:47.272Z,71.75
2023-05-19T10:49:47.302Z,74.05
2023-05-19T10:50:47.302Z,75.48
2023-05-19T10:51:47.300Z,74.86
2023-05-19T10:52:47.351Z,75.09
2023-05-19T10:53:47.358Z,74.07
2023-05-19T10:54:47.367Z,75.40
2023-05-19T10:55:47.413Z,76.56
2023-05-19T10:56:47.459Z,76.66
2023-05-19T10:57:47.495Z,74.56
2023-05-19T10:58:47.502Z,77.56
2023-05-19T10:59:47.509Z,72.29
2023-05-19T11:00:47.549Z,75.50
2023-05-19T11:01:47.657Z,77.77
2023-05-19T11:02:47.599Z,73.50
2023-05-19T11:03:47.624Z,79.28
2023-05-19T11:04:50.257Z,79.44
2023-05-19T11:05:47.624Z,82.47
2023-05-19T11:06:47.609Z,80.20
2023-05-19T11:07:47.616Z,81.39
2023-05-19T11:08:47.639Z,79.67
2023-05-19T11:09:47.577Z,81.39
2023-05-19T11:10:47.583Z,84.72
2023-05-19T11:11:47.569Z,80.09
2023-05-19T11:12:47.556Z,81.23
2023-05-19T11:13:47.546Z,82.31
2023-05-19T11:14:47.540Z,80.58
2023-05-19T11:15:47.572Z,81.79
2023-05-19T11:16:47.589Z,83.00
2023-05-19T11:17:47.562Z,83.57
2023-05-19T11:18:47.518Z,82.15
2023-05-19T11:19:47.494Z,82.75
2023-05-19T11:20:47.532Z,82.82
2023-05-19T11:21:47.480Z,83.08
2023-05-19T11:22:47.485Z,83.30
2023-05-19T11:23:47.492Z,83.82
2023-05-19T11:24:47.441Z,81.72
2023-05-19T11:25:47.535Z,82.99
2023-05-19T11:26:47.596Z,82.98
2023-05-19T11:27:47.429Z,83.40
2023-05-19T11:28:47.431Z,84.50
2023-05-19T11:29:47.450Z,85.28
2023-05-19T11:30:47.437Z,83.68
2023-05-19T11:31:47.597Z,82.90
2023-05-19T11:32:47.427Z,85.52
2023-05-19T11:33:47.433Z,83.67
2023-05-19T11:34:47.416Z,84.94
2023-05-19T11:35:47.381Z,85.38
2023-05-19T11:36:47.405Z,85.90
2023-05-19T11:37:47.380Z,84.49
2023-05-19T11:38:47.365Z,86.54
2023-05-19T11:39:47.371Z,85.32
2023-05-19T11:40:47.352Z,86.31
2023-05-19T11:41:47.385Z,87.78
2023-05-19T11:42:47.324Z,84.89
2023-05-19T11:43:47.346Z,85.13
2023-05-19T11:44:47.341Z,86.54
2023-05-19T11:45:47.452Z,88.38
2023-05-19T11:46:47.342Z,89.57
2023-05-19T11:48:01.186Z,87.56
2023-05-19T11:48:48.304Z,87.82
2023-05-19T11:49:47.303Z,88.17
2023-05-19T11:50:47.306Z,87.72
2023-05-19T11:51:47.604Z,89.08
2023-05-19T11:52:47.310Z,88.41
2023-05-19T11:53:47.252Z,89.00
2023-05-19T11:54:47.266Z,87.81
2023-05-19T11:55:47.570Z,88.12
2023-05-19T11:56:47.235Z,87.91
2023-05-19T11:58:02.138Z,87.94
2023-05-19T11:58:48.230Z,88.23
2023-05-19T11:59:47.242Z,88.69
2023-05-19T12:00:47.201Z,90.03
2023-05-19T12:01:47.206Z,89.55
2023-05-19T12:02:47.287Z,92.33
2023-05-19T12:03:47.255Z,95.43
2023-05-19T12:04:47.258Z,92.20
2023-05-19T12:05:47.802Z,92.15
2023-05-19T12:06:47.304Z,94.33
2023-05-19T12:07:47.200Z,91.83
2023-05-19T12:08:47.166Z,95.49
2023-05-19T12:09:47.179Z,92.40
2023-05-19T12:10:47.177Z,95.64
2023-05-19T12:11:47.153Z,94.94
2023-05-19T12:12:47.591Z,92.31
2023-05-19T12:13:47.146Z,91.39
2023-05-19T12:14:47.142Z,90.97
2023-05-19T12:15:47.284Z,89.94
2023-05-19T12:16:47.133Z,94.64
2023-05-19T12:17:47.195Z,92.91
2023-05-19T12:18:47.176Z,93.07
2023-05-19T12:19:47.168Z,94.48
2023-05-19T12:20:47.242Z,93.25
2023-05-19T12:21:47.248Z,95.77
2023-05-19T12:22:47.209Z,93.21
2023-05-19T12:23:47.189Z,89.82
2023-05-19T12:24:47.385Z,93.92
2023-05-19T12:25:47.258Z,92.23
2023-05-19T12:26:47.240Z,94.17
2023-05-19T12:27:47.285Z,93.37
2023-05-19T12:28:47.265Z,95.38
2023-05-19T12:29:47.314Z,94.76
2023-05-19T12:30:47.312Z,95.73
2023-05-19T12:31:47.408Z,94.83
2023-05-19T12:32:47.383Z,93.65
2023-05-19T12:33:47.369Z,96.57
2023-05-19T12:34:47.371Z,94.95
2023-05-19T12:35:47.405Z,95.25
2023-05-19T12:36:47.396Z,90.50
2023-05-19T12:37:47.466Z,91.31
2023-05-19T12:38:47.435Z,92.80
2023-05-19T12:39:47.476Z,94.68
2023-05-19T12:40:47.487Z,89.20
2023-05-19T12:41:47.583Z,95.22
2023-05-19T12:42:47.602Z,95.62
2023-05-19T12:43:47.573Z,97.88
2023-05-19T12:44:47.632Z,94.59
2023-05-19T12:45:47.650Z,95.59
2023-05-19T12:46:47.655Z,95.72
2023-05-19T12:47:48.152Z,93.81
2023-05-19T12:48:47.702Z,95.74
2023-05-19T12:49:47.684Z,94.92
2023-05-19T12:50:47.685Z,94.92
2023-05-19T12:51:47.685Z,94.36
2023-05-19T12:52:48.100Z,96.13